Ronda, North Carolina
Current Conditions -  °F | °C
As of 1:35 PM on Tuesday 27 Jan 2015 (Local Time) from KUKF Reporting Station
Clear Clear  
Wind Chill: 36°   Ceiling: Unl
Heat Index: 41°   Visibility: 10mi
Dew Point: 18°   Wind: 7mph
Humidity: 39%   Direction: 340°NNW
Pressure: 29.87"   Gusts: NA
Location:  36.22°N, 80.94°W
Report Text: KUKF 271835Z AUTO 34006KT 10SM CLR 05/M08 A2987 RMK AO2
Loading
Personal Weather Stations






























Interactive Weather Map New forecast layout! Learn more

10-Day Weather Forecast

Advertisements
Track Severe Weather on mobile